METAR Data
IDs: Format: Raw Decoded Include TAF

Data at: 0028 UTC 01 Mar 2021

EGGP 010020Z AUTO 07004KT 8000 NCD 04/03 Q1035